Time,TemperatureF,DewpointF,PressureIn,WindDirection,WindDirectionDegrees,WindSpeedMPH,WindSpeedGustMPH,Humidity,HourlyPrecipIn,Conditions,Clouds,dailyrainin,SoftwareType,DateUTC
2013-03-28 00:05:00,30.8,29.0,29.93,NW,312,2.0,4.0,91,0.00,,,0.00,weatherlink.com 1.10,2013-03-28 04:05:00,
2013-03-28 00:20:00,30.7,29.0,29.92,WNW,293,1.0,5.0,92,0.00,,,0.00,weatherlink.com 1.10,2013-03-28 04:20:00,
2013-03-28 00:35:00,30.6,29.0,29.92,WNW,288,0.0,4.0,92,0.00,,,0.00,weatherlink.com 1.10,2013-03-28 04:35:00,
2013-03-28 00:50:00,30.4,29.0,29.92,West,275,0.0,2.0,93,0.00,,,0.00,weatherlink.com 1.10,2013-03-28 04:50:00,
2013-03-28 01:05:00,30.3,29.0,29.92,WNW,291,0.0,1.0,93,0.00,,,0.00,weatherlink.com 1.10,2013-03-28 05:05:00,
2013-03-28 01:20:00,30.3,29.0,29.92,WNW,298,0.0,1.0,93,0.00,,,0.00,weatherlink.com 1.10,2013-03-28 05:20:00,
2013-03-28 01:35:00,30.2,29.0,29.92,WNW,289,0.0,1.0,94,0.00,,,0.00,weatherlink.com 1.10,2013-03-28 05:35:00,
2013-03-28 01:50:00,30.2,29.0,29.92,WNW,294,0.0,1.0,94,0.00,,,0.00,weatherlink.com 1.10,2013-03-28 05:50:00,
2013-03-28 02:05:00,30.2,29.0,29.92,WNW,294,0.0,0.0,94,0.00,,,0.00,weatherlink.com 1.10,2013-03-28 06:05:00,
2013-03-28 02:20:00,30.1,29.0,29.92,WNW,294,0.0,0.0,94,0.00,,,0.00,weatherlink.com 1.10,2013-03-28 06:20:00,
2013-03-28 02:35:00,30.1,29.0,29.92,WNW,295,0.0,0.0,94,0.00,,,0.00,weatherlink.com 1.10,2013-03-28 06:35:00,
2013-03-28 02:50:00,30.0,29.0,29.92,WNW,294,0.0,1.0,94,0.00,,,0.00,weatherlink.com 1.10,2013-03-28 06:50:00,
2013-03-28 03:05:00,30.0,29.0,29.92,WNW,294,0.0,0.0,94,0.00,,,0.00,weatherlink.com 1.10,2013-03-28 07:05:00,
2013-03-28 03:20:00,29.9,28.0,29.92,WNW,294,0.0,1.0,94,0.00,,,0.00,weatherlink.com 1.10,2013-03-28 07:20:00,
2013-03-28 03:35:00,29.9,29.0,29.92,WNW,294,0.0,0.0,95,0.00,,,0.00,weatherlink.com 1.10,2013-03-28 07:35:00,
2013-03-28 03:50:00,29.9,29.0,29.93,WNW,294,0.0,0.0,95,0.00,,,0.00,weatherlink.com 1.10,2013-03-28 07:50:00,
2013-03-28 04:05:00,29.9,29.0,29.93,WNW,294,0.0,1.0,95,0.00,,,0.00,weatherlink.com 1.10,2013-03-28 08:05:00,
2013-03-28 04:20:00,29.9,29.0,29.93,WNW,294,0.0,0.0,95,0.00,,,0.00,weatherlink.com 1.10,2013-03-28 08:20:00,
2013-03-28 04:35:00,29.8,29.0,29.93,WNW,294,0.0,0.0,95,0.00,,,0.00,weatherlink.com 1.10,2013-03-28 08:35:00,
2013-03-28 04:50:00,29.9,29.0,29.93,WNW,285,0.0,0.0,95,0.00,,,0.00,weatherlink.com 1.10,2013-03-28 08:50:00,
2013-03-28 05:05:00,29.9,29.0,29.93,NW,315,0.0,0.0,95,0.00,,,0.00,weatherlink.com 1.10,2013-03-28 09:05:00,
2013-03-28 05:20:00,30.0,29.0,29.93,NW,309,0.0,1.0,95,0.00,,,0.00,weatherlink.com 1.10,2013-03-28 09:20:00,
2013-03-28 05:35:00,30.2,29.0,29.94,West,276,0.0,2.0,95,0.00,,,0.00,weatherlink.com 1.10,2013-03-28 09:35:00,
2013-03-28 05:50:00,30.3,29.0,29.94,WNW,287,0.0,1.0,95,0.00,,,0.00,weatherlink.com 1.10,2013-03-28 09:50:00,
2013-03-28 06:05:00,30.4,29.0,29.94,WNW,283,0.0,2.0,95,0.00,,,0.00,weatherlink.com 1.10,2013-03-28 10:05:00,
2013-03-28 06:20:00,30.4,29.0,29.94,West,277,0.0,1.0,95,0.00,,,0.00,weatherlink.com 1.10,2013-03-28 10:20:00,
2013-03-28 06:35:00,30.5,29.0,29.95,West,276,0.0,1.0,95,0.00,,,0.00,weatherlink.com 1.10,2013-03-28 10:35:00,
2013-03-28 06:50:00,30.5,29.0,29.95,WNW,284,0.0,1.0,95,0.00,,,0.00,weatherlink.com 1.10,2013-03-28 10:50:00,
2013-03-28 07:05:00,30.5,29.0,29.96,WNW,296,0.0,1.0,95,0.00,,,0.00,weatherlink.com 1.10,2013-03-28 11:05:00,
2013-03-28 07:20:00,30.7,30.0,29.96,WNW,284,1.0,1.0,95,0.00,,,0.00,weatherlink.com 1.10,2013-03-28 11:20:00,
2013-03-28 07:35:00,30.9,30.0,29.97,WNW,284,0.0,1.0,95,0.00,,,0.00,weatherlink.com 1.10,2013-03-28 11:35:00,
2013-03-28 07:50:00,31.2,30.0,29.97,NNE,17,0.0,1.0,95,0.00,,,0.00,weatherlink.com 1.10,2013-03-28 11:50:00,
2013-03-28 08:05:00,31.3,30.0,29.98,West,269,0.0,1.0,95,0.00,,,0.00,weatherlink.com 1.10,2013-03-28 12:05:00,
2013-03-28 08:20:00,31.6,30.0,29.98,West,274,0.0,1.0,95,0.00,,,0.00,weatherlink.com 1.10,2013-03-28 12:20:00,
2013-03-28 08:35:00,31.6,30.0,29.98,NW,321,1.0,2.0,95,0.00,,,0.00,weatherlink.com 1.10,2013-03-28 12:35:00,
2013-03-28 08:51:00,31.8,31.0,29.98,WNW,301,0.0,3.0,95,0.00,,,0.00,weatherlink.com 1.10,2013-03-28 12:51:00,
2013-03-28 09:06:00,32.2,31.0,29.98,NNE,23,0.0,4.0,95,0.00,,,0.00,weatherlink.com 1.10,2013-03-28 13:06:00,
2013-03-28 09:21:00,32.4,31.0,29.99,West,272,1.0,3.0,94,0.00,,,0.00,weatherlink.com 1.10,2013-03-28 13:21:00,
2013-03-28 09:36:00,32.5,31.0,29.99,West,280,1.0,2.0,94,0.00,,,0.00,weatherlink.com 1.10,2013-03-28 13:36:00,
2013-03-28 09:51:00,32.7,31.0,29.99,NW,316,2.0,5.0,94,0.00,,,0.00,weatherlink.com 1.10,2013-03-28 13:51:00,
2013-03-28 10:06:00,33.3,32.0,29.99,West,277,0.0,3.0,93,0.00,,,0.00,weatherlink.com 1.10,2013-03-28 14:06:00,
2013-03-28 10:21:00,35.1,33.0,30.00,NE,34,1.0,3.0,91,0.00,,,0.00,weatherlink.com 1.10,2013-03-28 14:21:00,
2013-03-28 11:51:00,33.6,32.0,30.01,ENE,68,0.0,3.0,92,0.04,,,0.04,weatherlink.com 1.10,2013-03-28 15:51:00,
2013-03-28 12:06:00,33.5,31.0,30.01,WNW,284,1.0,3.0,91,0.03,,,0.04,weatherlink.com 1.10,2013-03-28 16:06:00,
2013-03-28 12:21:00,34.2,32.0,30.01,NE,34,1.0,2.0,92,0.03,,,0.05,weatherlink.com 1.10,2013-03-28 16:21:00,
2013-03-28 12:36:00,34.7,32.0,30.01,NNW,330,0.0,2.0,91,0.02,,,0.05,weatherlink.com 1.10,2013-03-28 16:36:00,
2013-03-28 12:51:00,35.6,33.0,30.01,NW,322,0.0,1.0,89,0.02,,,0.06,weatherlink.com 1.10,2013-03-28 16:51:00,
2013-03-28 13:06:00,35.8,33.0,30.01,NW,324,0.0,1.0,90,0.02,,,0.06,weatherlink.com 1.10,2013-03-28 17:06:00,
2013-03-28 13:21:00,37.6,33.0,30.01,WNW,295,1.0,5.0,83,0.01,,,0.06,weatherlink.com 1.10,2013-03-28 17:21:00,
2013-03-28 13:38:00,38.5,33.0,30.01,ENE,61,2.0,4.0,79,0.01,,,0.06,weatherlink.com 1.10,2013-03-28 17:38:00,
2013-03-28 13:51:00,38.6,32.0,30.01,WNW,297,5.0,6.0,77,0.00,,,0.06,weatherlink.com 1.10,2013-03-28 17:51:00,
2013-03-28 14:06:00,40.6,32.0,30.00,West,270,5.0,10.0,72,0.00,,,0.06,weatherlink.com 1.10,2013-03-28 18:06:00,
2013-03-28 14:21:00,40.2,33.0,30.01,South,181,1.0,5.0,76,0.00,,,0.06,weatherlink.com 1.10,2013-03-28 18:21:00,
2013-03-28 14:36:00,40.3,33.0,30.00,NW,306,2.0,3.0,76,0.00,,,0.06,weatherlink.com 1.10,2013-03-28 18:36:00,
2013-03-28 14:51:00,41.5,33.0,30.00,ENE,70,1.0,8.0,71,0.00,,,0.06,weatherlink.com 1.10,2013-03-28 18:51:00,
2013-03-28 15:06:00,41.6,33.0,30.00,ESE,105,3.0,5.0,72,0.00,,,0.06,weatherlink.com 1.10,2013-03-28 19:06:00,
2013-03-28 15:21:00,41.5,32.0,30.00,WNW,290,3.0,7.0,69,0.00,,,0.06,weatherlink.com 1.10,2013-03-28 19:21:00,
2013-03-28 15:36:00,41.0,32.0,30.00,North,352,1.0,7.0,71,0.00,,,0.06,weatherlink.com 1.10,2013-03-28 19:36:00,
2013-03-28 15:51:00,41.2,32.0,30.00,NE,49,1.0,8.0,71,0.00,,,0.06,weatherlink.com 1.10,2013-03-28 19:51:00,
2013-03-28 16:06:00,42.6,33.0,30.00,NW,322,1.0,8.0,69,0.00,,,0.06,weatherlink.com 1.10,2013-03-28 20:06:00,
2013-03-28 16:21:00,41.3,31.0,30.00,WNW,289,2.0,6.0,68,0.00,,,0.06,weatherlink.com 1.10,2013-03-28 20:21:00,
2013-03-28 16:36:00,41.3,31.0,30.00,WNW,296,1.0,8.0,67,0.00,,,0.06,weatherlink.com 1.10,2013-03-28 20:36:00,
2013-03-28 16:51:00,42.1,32.0,30.00,West,281,1.0,5.0,67,0.00,,,0.06,weatherlink.com 1.10,2013-03-28 20:51:00,
2013-03-28 17:06:00,40.2,32.0,30.00,North,8,0.0,2.0,72,0.00,,,0.06,weatherlink.com 1.10,2013-03-28 21:06:00,
2013-03-28 17:21:00,40.0,32.0,30.01,North,11,0.0,2.0,73,0.00,,,0.06,weatherlink.com 1.10,2013-03-28 21:21:00,
2013-03-28 17:36:00,41.4,32.0,30.00,North,349,1.0,8.0,70,0.00,,,0.06,weatherlink.com 1.10,2013-03-28 21:36:00,
2013-03-28 17:51:00,42.4,32.0,30.01,WNW,301,4.0,14.0,67,0.00,,,0.06,weatherlink.com 1.10,2013-03-28 21:51:00,
2013-03-28 18:21:00,41.3,32.0,30.01,WNW,303,4.0,9.0,69,0.00,,,0.06,weatherlink.com 1.10,2013-03-28 22:21:00,
2013-03-28 18:37:00,41.0,32.0,30.02,ENE,69,1.0,11.0,70,0.00,,,0.06,weatherlink.com 1.10,2013-03-28 22:37:00,
2013-03-28 18:52:00,39.9,32.0,30.02,East,84,0.0,2.0,73,0.00,,,0.06,weatherlink.com 1.10,2013-03-28 22:52:00,
2013-03-28 19:07:00,39.2,32.0,30.03,North,349,0.0,2.0,75,0.00,,,0.06,weatherlink.com 1.10,2013-03-28 23:07:00,
2013-03-28 19:22:00,38.2,32.0,30.03,NE,53,0.0,0.0,77,0.00,,,0.06,weatherlink.com 1.10,2013-03-28 23:22:00,
2013-03-28 19:37:00,37.9,31.0,30.04,NE,56,0.0,1.0,77,0.00,,,0.06,weatherlink.com 1.10,2013-03-28 23:37:00,
2013-03-28 19:52:00,37.4,31.0,30.04,NE,56,0.0,1.0,78,0.00,,,0.06,weatherlink.com 1.10,2013-03-28 23:52:00,
2013-03-28 20:07:00,37.1,31.0,30.04,NE,41,0.0,1.0,79,0.00,,,0.06,weatherlink.com 1.10,2013-03-29 00:07:00,
2013-03-28 20:22:00,36.7,31.0,30.05,NE,41,0.0,0.0,80,0.00,,,0.06,weatherlink.com 1.10,2013-03-29 00:22:00,
2013-03-28 20:37:00,36.2,31.0,30.05,ENE,57,1.0,1.0,80,0.00,,,0.06,weatherlink.com 1.10,2013-03-29 00:37:00,
2013-03-28 20:52:00,36.1,31.0,30.05,ENE,58,1.0,1.0,80,0.00,,,0.06,weatherlink.com 1.10,2013-03-29 00:52:00,
2013-03-28 21:07:00,36.3,31.0,30.06,ENE,58,1.0,1.0,80,0.00,,,0.06,weatherlink.com 1.10,2013-03-29 01:07:00,
2013-03-28 21:22:00,36.4,31.0,30.06,ENE,71,0.0,2.0,80,0.00,,,0.06,weatherlink.com 1.10,2013-03-29 01:22:00,
2013-03-28 21:37:00,36.7,31.0,30.07,ENE,72,0.0,0.0,79,0.00,,,0.06,weatherlink.com 1.10,2013-03-29 01:37:00,
2013-03-28 21:52:00,36.5,31.0,30.07,NNE,19,0.0,1.0,80,0.00,,,0.06,weatherlink.com 1.10,2013-03-29 01:52:00,
2013-03-28 22:07:00,36.6,31.0,30.07,NNE,18,0.0,1.0,80,0.00,,,0.06,weatherlink.com 1.10,2013-03-29 02:07:00,
2013-03-28 22:37:00,37.4,31.0,30.07,WNW,287,1.0,3.0,79,0.00,,,0.06,weatherlink.com 1.10,2013-03-29 02:37:00,
2013-03-28 22:52:00,37.0,31.0,30.07,WNW,293,2.0,2.0,79,0.00,,,0.06,weatherlink.com 1.10,2013-03-29 02:52:00,
2013-03-28 23:07:00,36.7,31.0,30.06,NW,315,0.0,0.0,80,0.00,,,0.06,weatherlink.com 1.10,2013-03-29 03:07:00,
2013-03-28 23:22:00,36.0,31.0,30.06,NE,42,0.0,1.0,81,0.00,,,0.06,weatherlink.com 1.10,2013-03-29 03:22:00,
2013-03-28 23:37:00,35.9,31.0,30.06,NE,39,0.0,1.0,82,0.00,,,0.06,weatherlink.com 1.10,2013-03-29 03:37:00,
2013-03-28 23:52:00,36.5,31.0,30.06,WNW,284,0.0,3.0,81,0.00,,,0.06,weatherlink.com 1.10,2013-03-29 03:52:00,